Time;durP1;ratioP1;P1;durP2;ratioP2;P2;SDS_P1;SDS_P2;PMS_P1;PMS_P2;Temp;Humidity;BMP_temperature;BMP_pressure;BME280_temperature;BME280_humidity;BME280_pressure;Samples;Min_cycle;Max_cycle;Signal;HPM_P1;HPM_P2
2024/01/27 00:01:58;;;;;;;3.38;2.47;;;;;;;21.33;46.80;100722.94;41502338;28;20053;-76
2024/01/27 00:21:59;;;;;;;3.97;2.92;;;;;;;21.28;46.31;100764.59;41473934;28;20145;-74
2024/01/27 00:41:59;;;;;;;5.60;3.47;;;;;;;21.28;46.07;100789.13;41494010;28;20646;-74
2024/01/27 01:02:00;;;;;;;5.25;3.53;;;;;;;21.20;45.73;100777.44;41484616;28;20076;-75
2024/01/27 01:22:00;;;;;;;5.72;3.47;;;;;;;21.15;45.68;100808.53;41478407;28;20141;-74
2024/01/27 01:42:00;;;;;;;5.45;3.63;;;;;;;21.13;45.61;100789.38;41485089;28;20058;-75
2024/01/27 02:02:01;;;;;;;5.28;3.20;;;;;;;21.10;45.32;100809.72;41498349;28;20045;-81
2024/01/27 02:22:02;;;;;;;3.47;3.10;;;;;;;21.03;45.38;100808.47;41514701;28;20058;-72
2024/01/27 02:42:04;;;;;;;3.97;2.95;;;;;;;20.99;44.93;100851.72;41537761;28;20052;-74
2024/01/27 03:02:07;;;;;;;2.78;2.40;;;;;;;20.98;45.06;100928.19;41495015;28;20038;-74
2024/01/27 03:22:07;;;;;;;2.97;2.13;;;;;;;20.92;44.82;100958.41;41476197;28;20062;-73
2024/01/27 03:42:08;;;;;;;2.55;2.08;;;;;;;20.90;44.92;101016.44;41483327;28;20505;-73
2024/01/27 04:02:09;;;;;;;2.40;1.70;;;;;;;20.84;44.96;101040.53;41483978;28;20048;-73
2024/01/27 04:22:10;;;;;;;1.92;1.70;;;;;;;20.81;44.56;101100.41;41480739;28;20057;-73
2024/01/27 04:42:10;;;;;;;2.13;1.58;;;;;;;20.79;44.74;101138.22;41477610;28;20388;-72
2024/01/27 05:02:11;;;;;;;1.40;1.30;;;;;;;20.75;44.31;101177.97;41477758;28;20144;-73
2024/01/27 05:22:12;;;;;;;1.45;1.20;;;;;;;21.10;43.74;101203.84;41494588;28;20050;-73
2024/01/27 05:42:12;;;;;;;1.92;1.20;;;;;;;21.38;43.22;101236.31;41490210;28;20486;-73
2024/01/27 06:02:14;;;;;;;0.80;0.80;;;;;;;21.44;43.22;101275.44;41499147;28;20046;-73
2024/01/27 06:22:14;;;;;;;4.07;1.42;;;;;;;21.43;43.16;101298.31;41495155;28;20599;-76
2024/01/27 06:42:14;;;;;;;4.82;2.20;;;;;;;21.50;43.08;101316.38;41518771;28;20097;-75
2024/01/27 07:02:15;;;;;;;8.95;2.13;;;;;;;21.42;38.00;101365.13;41466335;28;20064;-77
2024/01/27 07:22:15;;;;;;;8.88;3.80;;;;;;;21.69;40.68;101347.69;41460989;28;20054;-78
2024/01/27 07:42:16;;;;;;;8.05;4.80;;;;;;;21.69;41.74;101345.03;41503082;28;20097;-77
2024/01/27 08:02:22;;;;;;;5.75;3.75;;;;;;;21.36;41.58;101369.94;41552243;28;20049;-84
2024/01/27 08:22:22;;;;;;;8.35;4.07;;;;;;;21.79;42.31;101403.28;41574745;28;20033;-81
2024/01/27 08:42:23;;;;;;;5.82;4.20;;;;;;;21.91;42.23;101431.53;41603835;28;20042;-79
2024/01/27 09:02:25;;;;;;;14.57;5.07;;;;;;;21.73;42.51;101425.63;41615811;28;20052;-84
2024/01/27 09:22:26;;;;;;;7.18;4.10;;;;;;;21.85;42.69;101453.84;41611391;28;20037;-77
2024/01/27 09:42:27;;;;;;;8.55;3.63;;;;;;;21.87;42.51;101457.25;41642024;28;20076;-82
2024/01/27 10:02:29;;;;;;;11.48;3.50;;;;;;;21.92;42.40;101480.66;41627376;28;20034;-77
2024/01/27 10:22:39;;;;;;;2.38;1.20;;;;;;;18.04;30.41;101434.31;41593773;28;20091;-78
2024/01/27 10:42:40;;;;;;;5.63;2.40;;;;;;;21.68;34.24;101412.75;41611956;28;20042;-88
2024/01/27 11:02:42;;;;;;;4.45;1.30;;;;;;;19.74;29.35;101417.88;41617409;28;20041;-80
2024/01/27 11:22:43;;;;;;;27.52;8.40;;;;;;;22.34;37.32;101434.00;41619598;28;20128;-81
2024/01/27 11:42:53;;;;;;;26.17;7.47;;;;;;;22.07;44.77;101428.75;41604676;28;20044;-80
2024/01/27 12:02:54;;;;;;;24.77;8.00;;;;;;;23.16;42.91;101465.56;41616559;28;20101;-80
2024/01/27 12:23:05;;;;;;;14.50;4.30;;;;;;;20.43;39.60;101488.59;41641906;28;20041;-79
2024/01/27 12:43:07;;;;;;;4.10;1.40;;;;;;;21.34;30.29;101462.25;41571670;28;20053;-84
2024/01/27 13:03:08;;;;;;;9.32;2.85;;;;;;;21.79;37.84;101466.56;41550002;28;20057;-76
2024/01/27 13:23:08;;;;;;;6.13;2.17;;;;;;;21.70;38.61;101424.03;41594219;28;20398;-78
2024/01/27 13:43:09;;;;;;;5.63;2.00;;;;;;;21.60;37.62;101449.28;41609442;28;20143;-76
2024/01/27 14:03:09;;;;;;;3.75;1.85;;;;;;;21.67;38.64;101476.94;41589954;28;20044;-76
2024/01/27 14:23:09;;;;;;;3.67;1.77;;;;;;;21.62;38.41;101457.06;41582623;28;21255;-77
2024/01/27 14:43:11;;;;;;;8.20;1.88;;;;;;;19.66;32.56;101478.72;41583389;28;20053;-77
2024/01/27 15:03:13;;;;;;;3.65;1.60;;;;;;;21.37;36.12;101474.38;41547039;28;20552;-77
2024/01/27 15:23:13;;;;;;;4.28;1.52;;;;;;;21.15;33.11;101469.56;41608249;28;20042;-77
2024/01/27 15:43:14;;;;;;;42.15;14.40;;;;;;;21.46;42.09;101476.47;41573587;28;20037;-77
2024/01/27 16:03:15;;;;;;;44.35;15.25;;;;;;;21.59;46.27;101516.09;41544554;28;20049;-74
2024/01/27 16:23:15;;;;;;;38.08;13.48;;;;;;;21.62;44.71;101562.50;41548932;28;20437;-80
2024/01/27 16:43:15;;;;;;;39.00;14.35;;;;;;;21.56;45.54;101567.22;41580343;28;20586;-79
2024/01/27 17:03:16;;;;;;;33.33;10.50;;;;;;;21.40;44.25;101585.69;41557684;28;20050;-71
2024/01/27 17:23:17;;;;;;;23.80;9.20;;;;;;;21.49;44.22;101604.53;41546175;28;20060;-73
2024/01/27 17:43:18;;;;;;;20.42;8.55;;;;;;;21.54;44.04;101613.03;41554688;28;20045;-75
2024/01/27 18:03:18;;;;;;;18.40;7.93;;;;;;;21.42;44.43;101647.06;41563026;28;20560;-79
2024/01/27 18:23:19;;;;;;;14.65;7.15;;;;;;;21.61;44.08;101677.63;41604793;28;20129;-77
2024/01/27 18:43:19;;;;;;;14.35;6.50;;;;;;;21.55;44.12;101694.63;41580694;28;20068;-76
2024/01/27 19:03:20;;;;;;;11.77;5.40;;;;;;;21.36;44.01;101665.88;41566839;28;20046;-76
2024/01/27 19:23:20;;;;;;;12.85;5.50;;;;;;;21.39;44.31;101705.22;41560366;28;20049;-79
2024/01/27 19:43:22;;;;;;;9.45;4.70;;;;;;;21.35;44.01;101734.44;41586278;28;20112;-75
2024/01/27 20:03:24;;;;;;;10.50;4.50;;;;;;;21.58;44.21;101775.31;41558954;28;20049;-78
2024/01/27 20:23:24;;;;;;;6.43;2.72;;;;;;;20.27;33.95;101788.47;41531104;28;20073;-72
2024/01/27 20:43:25;;;;;;;9.60;3.30;;;;;;;21.12;41.32;101789.28;41499998;28;20133;-72
2024/01/27 21:03:25;;;;;;;8.32;2.65;;;;;;;21.16;43.56;101814.50;41478511;28;20049;-71
2024/01/27 21:23:26;;;;;;;10.18;2.97;;;;;;;20.89;43.61;101822.13;41480030;28;20115;-73
2024/01/27 21:43:27;;;;;;;5.47;2.47;;;;;;;21.02;43.48;101830.22;41498266;28;20060;-75
2024/01/27 22:03:28;;;;;;;5.93;2.28;;;;;;;20.92;43.75;101830.72;41512643;28;20502;-73
2024/01/27 22:23:29;;;;;;;5.63;2.70;;;;;;;20.90;44.23;101856.28;41530269;28;20045;-72
2024/01/27 22:43:29;;;;;;;3.90;1.90;;;;;;;20.86;44.78;101886.34;41513934;28;20049;-72
2024/01/27 23:03:30;;;;;;;3.83;2.03;;;;;;;20.81;45.40;101895.41;41516580;28;20485;-73
2024/01/27 23:23:31;;;;;;;3.70;1.77;;;;;;;20.77;45.38;101898.16;41525849;28;20052;-73
2024/01/27 23:43:31;;;;;;;4.60;1.77;;;;;;;20.78;45.33;101901.69;41529215;28;20044;-73
